sensor_id;sensor_type;location;lat;lon;timestamp;P1;durP1;ratioP1;P2;durP2;ratioP2
19673;SDS011;9986;50.610;7.230;2022-10-16T00:01:09;4.70;;;2.00;;
19673;SDS011;9986;50.610;7.230;2022-10-16T00:03:54;3.23;;;1.93;;
19673;SDS011;9986;50.610;7.230;2022-10-16T00:06:32;3.23;;;1.93;;
19673;SDS011;9986;50.610;7.230;2022-10-16T00:09:23;2.63;;;1.73;;
19673;SDS011;9986;50.610;7.230;2022-10-16T00:12:07;7.17;;;2.10;;
19673;SDS011;9986;50.610;7.230;2022-10-16T00:14:45;3.53;;;2.03;;
19673;SDS011;9986;50.610;7.230;2022-10-16T00:17:30;2.00;;;1.90;;
19673;SDS011;9986;50.610;7.230;2022-10-16T00:20:08;3.37;;;2.10;;
19673;SDS011;9986;50.610;7.230;2022-10-16T00:22:47;3.23;;;2.37;;
19673;SDS011;9986;50.610;7.230;2022-10-16T00:25:24;3.33;;;1.97;;
19673;SDS011;9986;50.610;7.230;2022-10-16T00:28:11;2.00;;;1.80;;
19673;SDS011;9986;50.610;7.230;2022-10-16T00:30:49;3.23;;;2.10;;
19673;SDS011;9986;50.610;7.230;2022-10-16T00:33:27;2.63;;;1.50;;
19673;SDS011;9986;50.610;7.230;2022-10-16T00:36:05;2.33;;;1.57;;
19673;SDS011;9986;50.610;7.230;2022-10-16T00:38:51;5.93;;;2.53;;
19673;SDS011;9986;50.610;7.230;2022-10-16T00:41:36;2.53;;;2.10;;
19673;SDS011;9986;50.610;7.230;2022-10-16T00:47:19;3.60;;;2.03;;
19673;SDS011;9986;50.610;7.230;2022-10-16T00:52:30;9.70;;;2.90;;
19673;SDS011;9986;50.610;7.230;2022-10-16T00:55:14;3.30;;;1.90;;
19673;SDS011;9986;50.610;7.230;2022-10-16T00:57:58;8.17;;;2.07;;
19673;SDS011;9986;50.610;7.230;2022-10-16T01:00:35;2.03;;;1.30;;
19673;SDS011;9986;50.610;7.230;2022-10-16T01:03:23;4.13;;;1.70;;
19673;SDS011;9986;50.610;7.230;2022-10-16T01:06:21;3.80;;;2.20;;
19673;SDS011;9986;50.610;7.230;2022-10-16T01:09:11;2.20;;;2.00;;
19673;SDS011;9986;50.610;7.230;2022-10-16T01:12:01;4.33;;;3.13;;
19673;SDS011;9986;50.610;7.230;2022-10-16T01:14:40;3.10;;;2.30;;
19673;SDS011;9986;50.610;7.230;2022-10-16T01:17:25;2.83;;;2.20;;
19673;SDS011;9986;50.610;7.230;2022-10-16T01:20:10;2.47;;;2.27;;
19673;SDS011;9986;50.610;7.230;2022-10-16T01:22:51;4.20;;;1.90;;
19673;SDS011;9986;50.610;7.230;2022-10-16T01:25:52;7.20;;;2.13;;
19673;SDS011;9986;50.610;7.230;2022-10-16T01:28:34;5.30;;;1.93;;
19673;SDS011;9986;50.610;7.230;2022-10-16T01:31:19;4.57;;;1.63;;
19673;SDS011;9986;50.610;7.230;2022-10-16T01:36:39;3.40;;;1.50;;
19673;SDS011;9986;50.610;7.230;2022-10-16T01:39:19;3.73;;;2.10;;
19673;SDS011;9986;50.610;7.230;2022-10-16T01:42:00;5.20;;;2.10;;
19673;SDS011;9986;50.610;7.230;2022-10-16T01:44:37;3.23;;;2.43;;
19673;SDS011;9986;50.610;7.230;2022-10-16T01:47:24;4.43;;;2.27;;
19673;SDS011;9986;50.610;7.230;2022-10-16T01:50:12;2.00;;;1.70;;
19673;SDS011;9986;50.610;7.230;2022-10-16T01:52:51;3.90;;;1.30;;
19673;SDS011;9986;50.610;7.230;2022-10-16T01:58:08;3.23;;;1.10;;
19673;SDS011;9986;50.610;7.230;2022-10-16T02:00:55;2.63;;;1.23;;
19673;SDS011;9986;50.610;7.230;2022-10-16T02:03:40;2.60;;;1.53;;
19673;SDS011;9986;50.610;7.230;2022-10-16T02:06:19;4.17;;;1.20;;
19673;SDS011;9986;50.610;7.230;2022-10-16T02:09:00;3.07;;;1.20;;
19673;SDS011;9986;50.610;7.230;2022-10-16T02:11:38;4.40;;;1.23;;
19673;SDS011;9986;50.610;7.230;2022-10-16T02:14:25;7.37;;;1.43;;
19673;SDS011;9986;50.610;7.230;2022-10-16T02:17:10;3.73;;;1.63;;
19673;SDS011;9986;50.610;7.230;2022-10-16T02:20:00;5.53;;;1.43;;
19673;SDS011;9986;50.610;7.230;2022-10-16T02:22:39;4.30;;;1.53;;
19673;SDS011;9986;50.610;7.230;2022-10-16T02:25:19;2.70;;;1.20;;
19673;SDS011;9986;50.610;7.230;2022-10-16T02:27:59;2.33;;;1.30;;
19673;SDS011;9986;50.610;7.230;2022-10-16T02:30:38;2.77;;;1.57;;
19673;SDS011;9986;50.610;7.230;2022-10-16T02:38:24;2.97;;;1.30;;
19673;SDS011;9986;50.610;7.230;2022-10-16T02:46:17;1.43;;;1.33;;
19673;SDS011;9986;50.610;7.230;2022-10-16T02:48:55;2.47;;;1.57;;
19673;SDS011;9986;50.610;7.230;2022-10-16T02:51:35;5.83;;;1.50;;
19673;SDS011;9986;50.610;7.230;2022-10-16T02:56:43;1.33;;;1.20;;
19673;SDS011;9986;50.610;7.230;2022-10-16T02:59:21;3.83;;;1.70;;
19673;SDS011;9986;50.610;7.230;2022-10-16T03:02:04;2.17;;;1.70;;
19673;SDS011;9986;50.610;7.230;2022-10-16T03:07:11;1.90;;;1.53;;
19673;SDS011;9986;50.610;7.230;2022-10-16T03:09:55;5.40;;;1.70;;
19673;SDS011;9986;50.610;7.230;2022-10-16T03:12:35;3.73;;;1.60;;
19673;SDS011;9986;50.610;7.230;2022-10-16T03:15:13;1.80;;;1.57;;
19673;SDS011;9986;50.610;7.230;2022-10-16T03:17:51;2.90;;;1.40;;
19673;SDS011;9986;50.610;7.230;2022-10-16T03:20:31;3.67;;;1.50;;
19673;SDS011;9986;50.610;7.230;2022-10-16T03:23:15;5.43;;;1.70;;
19673;SDS011;9986;50.610;7.230;2022-10-16T03:26:00;1.87;;;1.33;;
19673;SDS011;9986;50.610;7.230;2022-10-16T03:28:41;2.67;;;1.80;;
19673;SDS011;9986;50.610;7.230;2022-10-16T03:31:18;4.73;;;1.63;;
19673;SDS011;9986;50.610;7.230;2022-10-16T03:33:56;2.13;;;1.37;;
19673;SDS011;9986;50.610;7.230;2022-10-16T03:36:34;2.03;;;1.60;;
19673;SDS011;9986;50.610;7.230;2022-10-16T03:41:41;4.60;;;1.67;;
19673;SDS011;9986;50.610;7.230;2022-10-16T03:46:51;4.27;;;1.40;;
19673;SDS011;9986;50.610;7.230;2022-10-16T03:49:28;5.00;;;1.47;;
19673;SDS011;9986;50.610;7.230;2022-10-16T03:52:06;1.10;;;1.10;;
19673;SDS011;9986;50.610;7.230;2022-10-16T03:57:22;1.63;;;1.30;;
19673;SDS011;9986;50.610;7.230;2022-10-16T04:02:39;2.50;;;1.57;;
19673;SDS011;9986;50.610;7.230;2022-10-16T04:05:17;7.37;;;1.70;;
19673;SDS011;9986;50.610;7.230;2022-10-16T04:10:30;5.80;;;1.47;;
19673;SDS011;9986;50.610;7.230;2022-10-16T04:13:14;2.03;;;1.93;;
19673;SDS011;9986;50.610;7.230;2022-10-16T04:18:37;5.63;;;1.53;;
19673;SDS011;9986;50.610;7.230;2022-10-16T04:21:18;2.80;;;1.43;;
19673;SDS011;9986;50.610;7.230;2022-10-16T04:24:02;3.07;;;1.63;;
19673;SDS011;9986;50.610;7.230;2022-10-16T04:26:48;4.23;;;1.43;;
19673;SDS011;9986;50.610;7.230;2022-10-16T04:29:26;3.10;;;1.43;;
19673;SDS011;9986;50.610;7.230;2022-10-16T04:32:05;4.80;;;1.60;;
19673;SDS011;9986;50.610;7.230;2022-10-16T04:34:50;1.60;;;1.50;;
19673;SDS011;9986;50.610;7.230;2022-10-16T04:37:33;2.10;;;1.70;;
19673;SDS011;9986;50.610;7.230;2022-10-16T04:40:11;3.17;;;1.50;;
19673;SDS011;9986;50.610;7.230;2022-10-16T04:42:49;4.37;;;2.03;;
19673;SDS011;9986;50.610;7.230;2022-10-16T04:45:27;4.13;;;1.77;;
19673;SDS011;9986;50.610;7.230;2022-10-16T04:48:10;6.60;;;1.40;;
19673;SDS011;9986;50.610;7.230;2022-10-16T04:50:48;1.60;;;1.50;;
19673;SDS011;9986;50.610;7.230;2022-10-16T04:56:01;5.90;;;1.77;;
19673;SDS011;9986;50.610;7.230;2022-10-16T04:58:39;11.77;;;1.83;;
19673;SDS011;9986;50.610;7.230;2022-10-16T05:01:17;4.87;;;1.70;;
19673;SDS011;9986;50.610;7.230;2022-10-16T05:06:30;3.33;;;1.80;;
19673;SDS011;9986;50.610;7.230;2022-10-16T05:09:08;2.00;;;1.37;;
19673;SDS011;9986;50.610;7.230;2022-10-16T05:14:21;4.40;;;1.37;;
19673;SDS011;9986;50.610;7.230;2022-10-16T05:17:05;3.63;;;1.63;;
19673;SDS011;9986;50.610;7.230;2022-10-16T05:19:45;3.87;;;1.23;;
19673;SDS011;9986;50.610;7.230;2022-10-16T05:24:53;1.70;;;1.50;;
19673;SDS011;9986;50.610;7.230;2022-10-16T05:27:30;1.50;;;1.40;;
19673;SDS011;9986;50.610;7.230;2022-10-16T05:30:11;2.63;;;1.70;;
19673;SDS011;9986;50.610;7.230;2022-10-16T05:32:54;1.87;;;1.60;;
19673;SDS011;9986;50.610;7.230;2022-10-16T05:35:38;5.13;;;1.93;;
19673;SDS011;9986;50.610;7.230;2022-10-16T05:38:16;2.93;;;1.70;;
19673;SDS011;9986;50.610;7.230;2022-10-16T05:41:00;2.00;;;1.33;;
19673;SDS011;9986;50.610;7.230;2022-10-16T05:43:37;4.20;;;1.97;;
19673;SDS011;9986;50.610;7.230;2022-10-16T05:46:21;2.40;;;1.70;;
19673;SDS011;9986;50.610;7.230;2022-10-16T05:48:59;1.50;;;1.40;;
19673;SDS011;9986;50.610;7.230;2022-10-16T05:51:36;3.13;;;1.47;;
19673;SDS011;9986;50.610;7.230;2022-10-16T05:54:14;3.03;;;1.90;;
19673;SDS011;9986;50.610;7.230;2022-10-16T06:02:04;2.50;;;2.03;;
19673;SDS011;9986;50.610;7.230;2022-10-16T06:09:58;7.03;;;1.33;;
19673;SDS011;9986;50.610;7.230;2022-10-16T06:12:43;4.40;;;1.60;;
19673;SDS011;9986;50.610;7.230;2022-10-16T06:15:28;4.67;;;1.40;;
19673;SDS011;9986;50.610;7.230;2022-10-16T06:18:06;2.40;;;1.20;;
19673;SDS011;9986;50.610;7.230;2022-10-16T06:23:28;1.43;;;1.23;;
19673;SDS011;9986;50.610;7.230;2022-10-16T06:26:09;2.90;;;1.30;;
19673;SDS011;9986;50.610;7.230;2022-10-16T06:28:47;2.27;;;1.47;;
19673;SDS011;9986;50.610;7.230;2022-10-16T06:31:26;4.03;;;1.10;;
19673;SDS011;9986;50.610;7.230;2022-10-16T06:34:03;9.53;;;1.83;;
19673;SDS011;9986;50.610;7.230;2022-10-16T06:36:41;1.30;;;1.20;;
19673;SDS011;9986;50.610;7.230;2022-10-16T06:39:27;2.80;;;1.17;;
19673;SDS011;9986;50.610;7.230;2022-10-16T06:42:14;3.70;;;1.00;;
19673;SDS011;9986;50.610;7.230;2022-10-16T06:44:51;5.97;;;1.93;;
19673;SDS011;9986;50.610;7.230;2022-10-16T06:47:29;5.70;;;1.40;;
19673;SDS011;9986;50.610;7.230;2022-10-16T06:50:13;1.20;;;1.20;;
19673;SDS011;9986;50.610;7.230;2022-10-16T06:52:57;1.40;;;1.20;;
19673;SDS011;9986;50.610;7.230;2022-10-16T06:55:41;3.60;;;1.10;;
19673;SDS011;9986;50.610;7.230;2022-10-16T06:58:19;1.67;;;1.10;;
19673;SDS011;9986;50.610;7.230;2022-10-16T07:00:57;3.37;;;1.30;;
19673;SDS011;9986;50.610;7.230;2022-10-16T07:03:37;6.23;;;1.20;;
19673;SDS011;9986;50.610;7.230;2022-10-16T07:06:16;2.43;;;1.03;;
19673;SDS011;9986;50.610;7.230;2022-10-16T07:08:54;2.60;;;1.03;;
19673;SDS011;9986;50.610;7.230;2022-10-16T07:11:32;2.80;;;1.27;;
19673;SDS011;9986;50.610;7.230;2022-10-16T07:14:14;1.43;;;1.20;;
19673;SDS011;9986;50.610;7.230;2022-10-16T07:16:52;2.57;;;1.20;;
19673;SDS011;9986;50.610;7.230;2022-10-16T07:19:30;1.87;;;0.90;;
19673;SDS011;9986;50.610;7.230;2022-10-16T07:22:08;1.23;;;1.10;;
19673;SDS011;9986;50.610;7.230;2022-10-16T07:24:46;1.27;;;0.67;;
19673;SDS011;9986;50.610;7.230;2022-10-16T07:27:23;1.63;;;1.10;;
19673;SDS011;9986;50.610;7.230;2022-10-16T07:30:01;2.10;;;0.90;;
19673;SDS011;9986;50.610;7.230;2022-10-16T07:32:45;1.63;;;1.00;;
19673;SDS011;9986;50.610;7.230;2022-10-16T07:35:23;5.20;;;1.00;;
19673;SDS011;9986;50.610;7.230;2022-10-16T07:38:07;1.77;;;0.93;;
19673;SDS011;9986;50.610;7.230;2022-10-16T07:40:56;1.13;;;0.80;;
19673;SDS011;9986;50.610;7.230;2022-10-16T07:43:35;5.87;;;0.97;;
19673;SDS011;9986;50.610;7.230;2022-10-16T07:46:12;4.40;;;1.00;;
19673;SDS011;9986;50.610;7.230;2022-10-16T07:48:56;6.30;;;1.13;;
19673;SDS011;9986;50.610;7.230;2022-10-16T07:51:34;3.90;;;1.03;;
19673;SDS011;9986;50.610;7.230;2022-10-16T07:54:18;1.27;;;0.87;;
19673;SDS011;9986;50.610;7.230;2022-10-16T07:56:56;1.10;;;1.10;;
19673;SDS011;9986;50.610;7.230;2022-10-16T07:59:34;2.87;;;0.80;;
19673;SDS011;9986;50.610;7.230;2022-10-16T08:04:41;2.17;;;1.20;;
19673;SDS011;9986;50.610;7.230;2022-10-16T08:07:25;1.87;;;0.80;;
19673;SDS011;9986;50.610;7.230;2022-10-16T08:10:03;1.70;;;1.07;;
19673;SDS011;9986;50.610;7.230;2022-10-16T08:12:41;1.70;;;1.60;;
19673;SDS011;9986;50.610;7.230;2022-10-16T08:15:19;1.80;;;1.40;;
19673;SDS011;9986;50.610;7.230;2022-10-16T08:18:00;1.90;;;1.10;;
19673;SDS011;9986;50.610;7.230;2022-10-16T08:20:38;1.97;;;1.00;;
19673;SDS011;9986;50.610;7.230;2022-10-16T08:23:15;0.80;;;0.80;;
19673;SDS011;9986;50.610;7.230;2022-10-16T08:25:53;1.00;;;0.90;;
19673;SDS011;9986;50.610;7.230;2022-10-16T08:28:31;2.17;;;0.87;;
19673;SDS011;9986;50.610;7.230;2022-10-16T08:31:09;1.07;;;0.90;;
19673;SDS011;9986;50.610;7.230;2022-10-16T08:33:47;2.10;;;0.90;;
19673;SDS011;9986;50.610;7.230;2022-10-16T08:36:31;0.90;;;0.90;;
19673;SDS011;9986;50.610;7.230;2022-10-16T08:39:16;1.07;;;0.80;;
19673;SDS011;9986;50.610;7.230;2022-10-16T08:44:56;0.70;;;0.70;;
19673;SDS011;9986;50.610;7.230;2022-10-16T08:47:47;0.93;;;0.70;;
19673;SDS011;9986;50.610;7.230;2022-10-16T08:50:26;2.43;;;0.60;;
19673;SDS011;9986;50.610;7.230;2022-10-16T08:53:04;0.70;;;0.70;;
19673;SDS011;9986;50.610;7.230;2022-10-16T08:58:19;0.53;;;0.53;;
19673;SDS011;9986;50.610;7.230;2022-10-16T09:00:58;0.70;;;0.70;;
19673;SDS011;9986;50.610;7.230;2022-10-16T09:03:45;3.13;;;0.90;;
19673;SDS011;9986;50.610;7.230;2022-10-16T09:06:34;2.07;;;0.70;;
19673;SDS011;9986;50.610;7.230;2022-10-16T09:11:58;2.10;;;0.70;;
19673;SDS011;9986;50.610;7.230;2022-10-16T09:17:22;1.43;;;0.70;;
19673;SDS011;9986;50.610;7.230;2022-10-16T09:20:13;2.93;;;0.83;;
19673;SDS011;9986;50.610;7.230;2022-10-16T09:23:14;3.43;;;0.83;;
19673;SDS011;9986;50.610;7.230;2022-10-16T09:28:20;3.13;;;0.90;;
19673;SDS011;9986;50.610;7.230;2022-10-16T09:30:58;5.40;;;0.83;;
19673;SDS011;9986;50.610;7.230;2022-10-16T09:33:36;2.07;;;0.70;;
19673;SDS011;9986;50.610;7.230;2022-10-16T09:36:15;0.70;;;0.70;;
19673;SDS011;9986;50.610;7.230;2022-10-16T09:39:04;0.60;;;0.60;;
19673;SDS011;9986;50.610;7.230;2022-10-16T09:41:48;3.07;;;0.70;;
19673;SDS011;9986;50.610;7.230;2022-10-16T09:44:27;2.33;;;0.80;;
19673;SDS011;9986;50.610;7.230;2022-10-16T09:47:10;1.07;;;0.67;;
19673;SDS011;9986;50.610;7.230;2022-10-16T09:49:52;1.80;;;0.73;;
19673;SDS011;9986;50.610;7.230;2022-10-16T09:52:30;3.27;;;0.50;;
19673;SDS011;9986;50.610;7.230;2022-10-16T09:55:14;0.50;;;0.50;;
19673;SDS011;9986;50.610;7.230;2022-10-16T09:57:53;0.83;;;0.57;;
19673;SDS011;9986;50.610;7.230;2022-10-16T10:00:31;3.33;;;0.67;;
19673;SDS011;9986;50.610;7.230;2022-10-16T10:05:39;0.73;;;0.57;;
19673;SDS011;9986;50.610;7.230;2022-10-16T10:10:49;1.60;;;0.70;;
19673;SDS011;9986;50.610;7.230;2022-10-16T10:16:09;2.20;;;0.50;;
19673;SDS011;9986;50.610;7.230;2022-10-16T10:21:23;0.60;;;0.60;;
19673;SDS011;9986;50.610;7.230;2022-10-16T10:24:01;0.80;;;0.70;;
19673;SDS011;9986;50.610;7.230;2022-10-16T10:26:47;1.17;;;0.90;;
19673;SDS011;9986;50.610;7.230;2022-10-16T10:29:36;0.70;;;0.70;;
19673;SDS011;9986;50.610;7.230;2022-10-16T10:34:59;1.23;;;0.90;;
19673;SDS011;9986;50.610;7.230;2022-10-16T10:40:33;1.70;;;0.60;;
19673;SDS011;9986;50.610;7.230;2022-10-16T10:45:43;0.83;;;0.60;;
19673;SDS011;9986;50.610;7.230;2022-10-16T10:48:29;1.93;;;0.67;;
19673;SDS011;9986;50.610;7.230;2022-10-16T10:51:21;1.20;;;0.73;;
19673;SDS011;9986;50.610;7.230;2022-10-16T10:56:51;0.60;;;0.57;;
19673;SDS011;9986;50.610;7.230;2022-10-16T10:59:41;1.07;;;0.50;;
19673;SDS011;9986;50.610;7.230;2022-10-16T11:08:06;2.43;;;0.70;;
19673;SDS011;9986;50.610;7.230;2022-10-16T11:10:50;0.47;;;0.47;;
19673;SDS011;9986;50.610;7.230;2022-10-16T11:13:40;0.63;;;0.50;;
19673;SDS011;9986;50.610;7.230;2022-10-16T11:16:31;1.50;;;0.50;;
19673;SDS011;9986;50.610;7.230;2022-10-16T11:21:44;0.50;;;0.50;;
19673;SDS011;9986;50.610;7.230;2022-10-16T11:24:25;3.10;;;0.67;;
19673;SDS011;9986;50.610;7.230;2022-10-16T11:27:04;1.20;;;0.63;;
19673;SDS011;9986;50.610;7.230;2022-10-16T11:29:44;2.53;;;0.50;;
19673;SDS011;9986;50.610;7.230;2022-10-16T11:35:02;2.40;;;0.50;;
19673;SDS011;9986;50.610;7.230;2022-10-16T11:37:42;3.00;;;0.80;;
19673;SDS011;9986;50.610;7.230;2022-10-16T11:40:28;2.27;;;0.60;;
19673;SDS011;9986;50.610;7.230;2022-10-16T11:43:21;1.80;;;0.70;;
19673;SDS011;9986;50.610;7.230;2022-10-16T11:45:58;0.40;;;0.40;;
19673;SDS011;9986;50.610;7.230;2022-10-16T11:48:43;4.20;;;0.67;;
19673;SDS011;9986;50.610;7.230;2022-10-16T11:54:04;1.10;;;0.37;;
19673;SDS011;9986;50.610;7.230;2022-10-16T11:56:42;0.40;;;0.40;;
19673;SDS011;9986;50.610;7.230;2022-10-16T11:59:38;0.60;;;0.40;;
19673;SDS011;9986;50.610;7.230;2022-10-16T12:07:51;0.40;;;0.40;;
19673;SDS011;9986;50.610;7.230;2022-10-16T12:10:38;0.60;;;0.50;;
19673;SDS011;9986;50.610;7.230;2022-10-16T12:16:52;0.93;;;0.73;;
19673;SDS011;9986;50.610;7.230;2022-10-16T12:22:16;2.73;;;0.60;;
19673;SDS011;9986;50.610;7.230;2022-10-16T12:24:55;1.20;;;0.40;;
19673;SDS011;9986;50.610;7.230;2022-10-16T12:27:34;5.03;;;0.63;;
19673;SDS011;9986;50.610;7.230;2022-10-16T12:30:14;3.53;;;0.70;;
19673;SDS011;9986;50.610;7.230;2022-10-16T12:32:56;1.53;;;0.40;;
19673;SDS011;9986;50.610;7.230;2022-10-16T12:35:47;1.33;;;0.50;;
19673;SDS011;9986;50.610;7.230;2022-10-16T12:40:56;1.40;;;0.47;;
19673;SDS011;9986;50.610;7.230;2022-10-16T12:43:36;2.23;;;0.53;;
19673;SDS011;9986;50.610;7.230;2022-10-16T12:46:22;2.60;;;0.50;;
19673;SDS011;9986;50.610;7.230;2022-10-16T12:49:22;0.87;;;0.53;;
19673;SDS011;9986;50.610;7.230;2022-10-16T12:52:22;4.23;;;0.60;;
19673;SDS011;9986;50.610;7.230;2022-10-16T13:01:04;1.80;;;0.70;;
19673;SDS011;9986;50.610;7.230;2022-10-16T13:04:06;0.50;;;0.50;;
19673;SDS011;9986;50.610;7.230;2022-10-16T13:07:02;2.60;;;0.60;;
19673;SDS011;9986;50.610;7.230;2022-10-16T13:09:49;0.50;;;0.50;;
19673;SDS011;9986;50.610;7.230;2022-10-16T13:12:39;2.07;;;0.60;;
19673;SDS011;9986;50.610;7.230;2022-10-16T13:18:08;0.87;;;0.50;;
19673;SDS011;9986;50.610;7.230;2022-10-16T13:21:08;2.10;;;0.50;;
19673;SDS011;9986;50.610;7.230;2022-10-16T13:24:01;0.37;;;0.37;;
19673;SDS011;9986;50.610;7.230;2022-10-16T13:26:41;2.17;;;0.40;;
19673;SDS011;9986;50.610;7.230;2022-10-16T13:29:29;4.03;;;0.50;;
19673;SDS011;9986;50.610;7.230;2022-10-16T13:32:14;0.50;;;0.50;;
19673;SDS011;9986;50.610;7.230;2022-10-16T13:35:19;1.43;;;0.60;;
19673;SDS011;9986;50.610;7.230;2022-10-16T13:40:52;0.40;;;0.40;;
19673;SDS011;9986;50.610;7.230;2022-10-16T13:43:32;0.40;;;0.40;;
19673;SDS011;9986;50.610;7.230;2022-10-16T13:46:13;4.53;;;0.70;;
19673;SDS011;9986;50.610;7.230;2022-10-16T13:48:58;0.53;;;0.50;;
19673;SDS011;9986;50.610;7.230;2022-10-16T13:54:07;1.93;;;0.57;;
19673;SDS011;9986;50.610;7.230;2022-10-16T13:56:56;0.40;;;0.37;;
19673;SDS011;9986;50.610;7.230;2022-10-16T13:59:37;1.77;;;0.50;;
19673;SDS011;9986;50.610;7.230;2022-10-16T14:02:18;1.07;;;0.60;;
19673;SDS011;9986;50.610;7.230;2022-10-16T14:04:56;3.50;;;0.60;;
19673;SDS011;9986;50.610;7.230;2022-10-16T14:07:35;5.67;;;0.60;;
19673;SDS011;9986;50.610;7.230;2022-10-16T14:10:20;3.37;;;0.77;;
19673;SDS011;9986;50.610;7.230;2022-10-16T14:13:03;2.10;;;0.43;;
19673;SDS011;9986;50.610;7.230;2022-10-16T14:15:45;1.60;;;0.40;;
19673;SDS011;9986;50.610;7.230;2022-10-16T14:20:53;2.97;;;0.60;;
19673;SDS011;9986;50.610;7.230;2022-10-16T14:23:32;0.50;;;0.50;;
19673;SDS011;9986;50.610;7.230;2022-10-16T14:26:16;0.40;;;0.40;;
19673;SDS011;9986;50.610;7.230;2022-10-16T14:29:10;4.37;;;0.67;;
19673;SDS011;9986;50.610;7.230;2022-10-16T14:31:57;5.10;;;0.90;;
19673;SDS011;9986;50.610;7.230;2022-10-16T14:37:14;2.27;;;0.70;;
19673;SDS011;9986;50.610;7.230;2022-10-16T14:39:57;1.20;;;0.50;;
19673;SDS011;9986;50.610;7.230;2022-10-16T14:45:15;1.23;;;0.63;;
19673;SDS011;9986;50.610;7.230;2022-10-16T14:48:01;0.70;;;0.60;;
19673;SDS011;9986;50.610;7.230;2022-10-16T14:50:40;0.93;;;0.40;;
19673;SDS011;9986;50.610;7.230;2022-10-16T14:53:19;2.80;;;0.60;;
19673;SDS011;9986;50.610;7.230;2022-10-16T15:01:29;3.13;;;0.60;;
19673;SDS011;9986;50.610;7.230;2022-10-16T15:09:26;1.90;;;0.70;;
19673;SDS011;9986;50.610;7.230;2022-10-16T15:12:10;0.43;;;0.43;;
19673;SDS011;9986;50.610;7.230;2022-10-16T15:14:49;2.67;;;0.60;;
19673;SDS011;9986;50.610;7.230;2022-10-16T15:20:25;1.37;;;0.70;;
19673;SDS011;9986;50.610;7.230;2022-10-16T15:25:56;2.07;;;0.50;;
19673;SDS011;9986;50.610;7.230;2022-10-16T15:28:53;0.53;;;0.50;;
19673;SDS011;9986;50.610;7.230;2022-10-16T15:40:33;4.60;;;0.90;;
19673;SDS011;9986;50.610;7.230;2022-10-16T15:45:58;2.50;;;0.80;;
19673;SDS011;9986;50.610;7.230;2022-10-16T16:01:57;1.73;;;0.60;;
19673;SDS011;9986;50.610;7.230;2022-10-16T16:04:37;3.00;;;0.90;;
19673;SDS011;9986;50.610;7.230;2022-10-16T16:07:22;2.30;;;0.70;;
19673;SDS011;9986;50.610;7.230;2022-10-16T16:10:07;3.97;;;0.70;;
19673;SDS011;9986;50.610;7.230;2022-10-16T16:12:51;1.60;;;0.80;;
19673;SDS011;9986;50.610;7.230;2022-10-16T16:17:59;4.40;;;0.60;;
19673;SDS011;9986;50.610;7.230;2022-10-16T16:29:15;2.47;;;0.63;;
19673;SDS011;9986;50.610;7.230;2022-10-16T16:31:53;0.77;;;0.60;;
19673;SDS011;9986;50.610;7.230;2022-10-16T16:37:46;2.53;;;0.67;;
19673;SDS011;9986;50.610;7.230;2022-10-16T16:49:14;2.40;;;0.90;;
19673;SDS011;9986;50.610;7.230;2022-10-16T16:52:05;4.40;;;1.43;;
19673;SDS011;9986;50.610;7.230;2022-10-16T16:55:00;0.87;;;0.87;;
19673;SDS011;9986;50.610;7.230;2022-10-16T17:00:16;1.13;;;1.03;;
19673;SDS011;9986;50.610;7.230;2022-10-16T17:03:03;1.87;;;1.20;;
19673;SDS011;9986;50.610;7.230;2022-10-16T17:05:41;0.97;;;0.70;;
19673;SDS011;9986;50.610;7.230;2022-10-16T17:08:20;2.00;;;0.83;;
19673;SDS011;9986;50.610;7.230;2022-10-16T17:10:58;1.60;;;0.70;;
19673;SDS011;9986;50.610;7.230;2022-10-16T17:19:36;3.90;;;1.20;;
19673;SDS011;9986;50.610;7.230;2022-10-16T17:25:15;1.03;;;0.70;;
19673;SDS011;9986;50.610;7.230;2022-10-16T17:28:12;1.63;;;0.77;;
19673;SDS011;9986;50.610;7.230;2022-10-16T17:30:50;2.80;;;0.97;;
19673;SDS011;9986;50.610;7.230;2022-10-16T17:33:28;0.90;;;0.90;;
19673;SDS011;9986;50.610;7.230;2022-10-16T17:42:35;4.33;;;1.00;;
19673;SDS011;9986;50.610;7.230;2022-10-16T17:45:35;5.13;;;0.90;;
19673;SDS011;9986;50.610;7.230;2022-10-16T17:48:28;1.07;;;0.97;;
19673;SDS011;9986;50.610;7.230;2022-10-16T17:53:53;1.50;;;1.00;;
19673;SDS011;9986;50.610;7.230;2022-10-16T17:56:37;1.73;;;1.20;;
19673;SDS011;9986;50.610;7.230;2022-10-16T17:59:15;4.30;;;1.30;;
19673;SDS011;9986;50.610;7.230;2022-10-16T18:01:56;1.27;;;0.80;;
19673;SDS011;9986;50.610;7.230;2022-10-16T18:04:37;4.20;;;0.90;;
19673;SDS011;9986;50.610;7.230;2022-10-16T18:07:24;3.20;;;1.33;;
19673;SDS011;9986;50.610;7.230;2022-10-16T18:10:05;0.90;;;0.90;;
19673;SDS011;9986;50.610;7.230;2022-10-16T18:12:57;5.50;;;1.00;;
19673;SDS011;9986;50.610;7.230;2022-10-16T18:18:41;4.77;;;1.10;;
19673;SDS011;9986;50.610;7.230;2022-10-16T18:21:20;1.80;;;0.80;;
19673;SDS011;9986;50.610;7.230;2022-10-16T18:24:04;3.07;;;1.00;;
19673;SDS011;9986;50.610;7.230;2022-10-16T18:29:19;5.23;;;1.20;;
19673;SDS011;9986;50.610;7.230;2022-10-16T18:31:58;3.30;;;1.10;;
19673;SDS011;9986;50.610;7.230;2022-10-16T18:34:36;3.00;;;1.30;;
19673;SDS011;9986;50.610;7.230;2022-10-16T18:37:18;3.00;;;1.10;;
19673;SDS011;9986;50.610;7.230;2022-10-16T18:39:56;2.77;;;1.10;;
19673;SDS011;9986;50.610;7.230;2022-10-16T18:42:33;4.30;;;1.20;;
19673;SDS011;9986;50.610;7.230;2022-10-16T18:45:11;4.80;;;1.40;;
19673;SDS011;9986;50.610;7.230;2022-10-16T18:47:51;2.30;;;1.20;;
19673;SDS011;9986;50.610;7.230;2022-10-16T18:50:29;3.83;;;1.17;;
19673;SDS011;9986;50.610;7.230;2022-10-16T18:53:06;2.27;;;1.23;;
19673;SDS011;9986;50.610;7.230;2022-10-16T18:55:50;2.97;;;1.80;;
19673;SDS011;9986;50.610;7.230;2022-10-16T18:58:28;3.40;;;1.53;;
19673;SDS011;9986;50.610;7.230;2022-10-16T19:01:07;3.13;;;1.40;;
19673;SDS011;9986;50.610;7.230;2022-10-16T19:06:35;3.57;;;1.47;;
19673;SDS011;9986;50.610;7.230;2022-10-16T19:09:17;2.77;;;1.43;;
19673;SDS011;9986;50.610;7.230;2022-10-16T19:11:56;5.63;;;1.90;;
19673;SDS011;9986;50.610;7.230;2022-10-16T19:17:11;3.57;;;1.60;;
19673;SDS011;9986;50.610;7.230;2022-10-16T19:19:50;2.87;;;1.77;;
19673;SDS011;9986;50.610;7.230;2022-10-16T19:25:06;4.77;;;1.67;;
19673;SDS011;9986;50.610;7.230;2022-10-16T19:27:50;2.50;;;2.20;;
19673;SDS011;9986;50.610;7.230;2022-10-16T19:30:28;3.23;;;2.03;;
19673;SDS011;9986;50.610;7.230;2022-10-16T19:35:47;2.73;;;2.50;;
19673;SDS011;9986;50.610;7.230;2022-10-16T19:38:25;3.00;;;2.50;;
19673;SDS011;9986;50.610;7.230;2022-10-16T19:41:09;3.87;;;2.10;;
19673;SDS011;9986;50.610;7.230;2022-10-16T19:43:47;4.13;;;2.17;;
19673;SDS011;9986;50.610;7.230;2022-10-16T19:46:31;5.93;;;2.30;;
19673;SDS011;9986;50.610;7.230;2022-10-16T19:49:09;5.63;;;2.50;;
19673;SDS011;9986;50.610;7.230;2022-10-16T19:54:23;3.03;;;2.67;;
19673;SDS011;9986;50.610;7.230;2022-10-16T19:57:09;3.87;;;2.53;;
19673;SDS011;9986;50.610;7.230;2022-10-16T19:59:51;7.03;;;2.27;;
19673;SDS011;9986;50.610;7.230;2022-10-16T20:04:58;3.10;;;2.00;;
19673;SDS011;9986;50.610;7.230;2022-10-16T20:10:05;4.50;;;2.43;;
19673;SDS011;9986;50.610;7.230;2022-10-16T20:15:14;4.70;;;2.60;;
19673;SDS011;9986;50.610;7.230;2022-10-16T20:20:21;3.47;;;2.73;;
19673;SDS011;9986;50.610;7.230;2022-10-16T20:22:59;5.17;;;2.87;;
19673;SDS011;9986;50.610;7.230;2022-10-16T20:25:38;5.50;;;2.90;;
19673;SDS011;9986;50.610;7.230;2022-10-16T20:28:17;4.20;;;2.70;;
19673;SDS011;9986;50.610;7.230;2022-10-16T20:30:55;3.30;;;2.70;;
19673;SDS011;9986;50.610;7.230;2022-10-16T20:36:02;4.27;;;3.30;;
19673;SDS011;9986;50.610;7.230;2022-10-16T20:38:40;3.37;;;2.63;;
19673;SDS011;9986;50.610;7.230;2022-10-16T20:41:18;3.43;;;3.13;;
19673;SDS011;9986;50.610;7.230;2022-10-16T20:43:56;4.83;;;3.13;;
19673;SDS011;9986;50.610;7.230;2022-10-16T20:46:34;3.43;;;3.20;;
19673;SDS011;9986;50.610;7.230;2022-10-16T20:49:11;6.37;;;2.77;;
19673;SDS011;9986;50.610;7.230;2022-10-16T20:51:58;4.23;;;3.17;;
19673;SDS011;9986;50.610;7.230;2022-10-16T20:54:29;8.60;;;2.90;;
19673;SDS011;9986;50.610;7.230;2022-10-16T20:57:12;5.30;;;3.40;;